Time;durP1;ratioP1;P1;durP2;ratioP2;P2;SDS_P1;SDS_P2;PMS_P1;PMS_P2;Temp;Humidity;BMP_temperature;BMP_pressure;BME280_temperature;BME280_humidity;BME280_pressure;Samples;Min_cycle;Max_cycle;Signal;HPM_P1;HPM_P2
2022/12/07 00:01:19;;;;;;;15.23;5.05;;;4.80;99.90;;;;;;6208850;23;20100;-81
2022/12/07 00:03:47;;;;;;;14.95;1.98;;;4.60;99.90;;;;;;6210388;23;20063;-83
2022/12/07 00:06:16;;;;;;;17.83;1.58;;;4.80;99.90;;;;;;6186572;23;20024;-84
2022/12/07 00:08:42;;;;;;;13.63;1.48;;;4.70;99.90;;;;;;6183465;23;20013;-84
2022/12/07 00:11:17;;;;;;;12.55;1.73;;;4.50;99.90;;;;;;6210696;23;20012;-86
2022/12/07 00:13:43;;;;;;;;;;;4.60;99.90;;;;;;6208935;23;20106;-81
2022/12/07 00:16:12;;;;;;;7.70;1.00;;;4.40;99.90;;;;;;6184629;23;19916;-82
2022/12/07 00:18:38;;;;;;;12.07;1.20;;;4.40;99.90;;;;;;6208741;23;20020;-81
2022/12/07 00:21:10;;;;;;;10.77;1.30;;;4.30;99.90;;;;;;6184475;23;20331;-80
2022/12/07 00:23:36;;;;;;;13.30;1.52;;;4.30;99.90;;;;;;6182164;23;20431;-81
2022/12/07 00:26:10;;;;;;;11.65;1.52;;;4.00;99.90;;;;;;6183489;23;20017;-82
2022/12/07 00:28:35;;;;;;;9.45;1.15;;;4.10;99.90;;;;;;6210453;23;20423;-82
2022/12/07 00:31:04;;;;;;;11.65;1.05;;;4.00;99.90;;;;;;6185477;23;20155;-82
2022/12/07 00:33:31;;;;;;;6.40;1.40;;;3.80;99.90;;;;;;6209316;23;20090;-79
2022/12/07 00:36:00;;;;;;;13.00;1.65;;;3.80;99.90;;;;;;6185490;23;20020;-80
2022/12/07 00:38:29;;;;;;;11.32;1.20;;;3.80;99.90;;;;;;6187601;23;20099;-81
2022/12/07 00:41:00;;;;;;;13.10;1.42;;;3.70;99.90;;;;;;6187201;23;20163;-82
2022/12/07 00:43:26;;;;;;;10.13;1.40;;;3.70;99.90;;;;;;6188068;23;20021;-80
2022/12/07 00:45:53;;;;;;;11.57;1.60;;;4.00;99.90;;;;;;6215663;23;20023;-80
2022/12/07 00:48:19;;;;;;;13.18;1.77;;;4.30;99.90;;;;;;6188360;23;20008;-81
2022/12/07 00:50:45;;;;;;;12.32;2.40;;;4.10;99.90;;;;;;6212775;23;20124;-80
2022/12/07 00:53:10;;;;;;;12.98;2.67;;;4.30;99.90;;;;;;6210521;23;20016;-85
2022/12/07 00:55:36;;;;;;;8.30;3.22;;;4.60;99.90;;;;;;6211822;23;20123;-80
2022/12/07 00:58:02;;;;;;;8.20;2.30;;;4.50;99.90;;;;;;6208702;23;20020;-82
2022/12/07 01:00:28;;;;;;;7.18;2.40;;;4.80;99.90;;;;;;6208860;23;20012;-81
2022/12/07 01:02:54;;;;;;;11.38;3.03;;;4.90;99.90;;;;;;6184494;23;20475;-84
2022/12/07 01:05:19;;;;;;;11.35;3.47;;;4.90;99.90;;;;;;6208058;23;20376;-82
2022/12/07 01:07:46;;;;;;;15.48;2.05;;;5.00;99.90;;;;;;6183150;23;20417;-81
2022/12/07 01:10:13;;;;;;;8.50;1.50;;;5.00;99.90;;;;;;6183248;23;20016;-82
2022/12/07 01:12:38;;;;;;;11.02;3.25;;;4.80;99.90;;;;;;6210293;23;20068;-81
2022/12/07 01:15:05;;;;;;;13.68;4.45;;;4.80;99.90;;;;;;6210473;23;20012;-85
2022/12/07 01:17:31;;;;;;;12.38;3.13;;;4.90;99.90;;;;;;6186666;23;20017;-82
2022/12/07 01:19:56;;;;;;;9.38;1.48;;;4.90;99.90;;;;;;6186956;23;20035;-84
2022/12/07 01:22:22;;;;;;;7.35;1.08;;;4.90;99.90;;;;;;6185634;23;20092;-80
2022/12/07 01:24:48;;;;;;;7.72;1.58;;;4.90;99.90;;;;;;6187841;23;20059;-85
2022/12/07 01:27:14;;;;;;;18.10;5.07;;;4.80;99.90;;;;;;6211437;23;20071;-82
2022/12/07 01:29:44;;;;;;;8.00;1.60;;;4.80;99.90;;;;;;6214007;23;20020;-83
2022/12/07 01:32:10;;;;;;;8.48;1.48;;;4.70;99.90;;;;;;6213129;23;20094;-81
2022/12/07 01:34:36;;;;;;;5.10;0.82;;;4.80;99.90;;;;;;6189990;23;20063;-82
2022/12/07 01:37:02;;;;;;;10.38;1.10;;;4.80;99.90;;;;;;6188667;23;20012;-83
2022/12/07 01:39:28;;;;;;;12.00;1.30;;;4.80;99.90;;;;;;6188564;23;20099;-80
2022/12/07 01:41:53;;;;;;;9.57;1.40;;;4.80;99.90;;;;;;6185809;23;20012;-81
2022/12/07 01:44:30;;;;;;;14.63;1.65;;;4.50;99.90;;;;;;6187237;23;20073;-78
2022/12/07 01:46:59;;;;;;;10.40;1.65;;;4.50;99.90;;;;;;6187508;23;20040;-83
2022/12/07 01:49:43;;;;;;;15.50;2.60;;;4.50;99.90;;;;;;6212440;23;20076;-82
2022/12/07 01:52:17;;;;;;;14.48;2.30;;;4.40;99.90;;;;;;6161469;23;20030;-81
2022/12/07 01:54:45;;;;;;;19.42;1.90;;;4.50;99.90;;;;;;6212331;23;20036;-81
2022/12/07 01:57:12;;;;;;;17.05;1.80;;;4.40;99.90;;;;;;6162084;23;20016;-80
2022/12/07 01:59:38;;;;;;;11.75;1.70;;;4.40;99.90;;;;;;6212333;23;20043;-79
2022/12/07 02:02:10;;;;;;;8.15;1.42;;;4.60;99.90;;;;;;6186551;23;20027;-86
2022/12/07 02:04:37;;;;;;;12.30;1.60;;;4.40;99.90;;;;;;6187121;23;20035;-85
2022/12/07 02:07:05;;;;;;;17.95;1.40;;;4.50;99.90;;;;;;6185887;23;20131;-79
2022/12/07 02:09:30;;;;;;;8.93;1.15;;;4.40;99.90;;;;;;6187409;23;20016;-82
2022/12/07 02:11:56;;;;;;;16.73;2.13;;;4.40;99.90;;;;;;6212761;23;20089;-82
2022/12/07 02:14:22;;;;;;;19.10;1.60;;;4.10;99.90;;;;;;6212822;23;20017;-81
2022/12/07 02:17:14;;;;;;;11.65;1.17;;;4.20;99.90;;;;;;6212261;23;20013;-82
2022/12/07 02:19:39;;;;;;;6.97;1.20;;;4.00;99.90;;;;;;6211320;23;20016;-80
2022/12/07 02:22:27;;;;;;;7.78;1.13;;;4.00;99.90;;;;;;6188061;23;20016;-83
2022/12/07 02:24:58;;;;;;;14.20;1.90;;;3.80;99.90;;;;;;6212755;23;20052;-80
2022/12/07 02:27:45;;;;;;;12.52;1.48;;;4.00;99.90;;;;;;6210837;23;20024;-81
2022/12/07 02:30:17;;;;;;;15.88;1.63;;;3.70;99.90;;;;;;6187375;23;20066;-81
2022/12/07 02:33:13;;;;;;;15.48;1.65;;;3.90;99.90;;;;;;6185880;23;20078;-84
2022/12/07 02:36:00;;;;;;;17.98;1.67;;;4.00;99.90;;;;;;6187781;23;20666;-82
2022/12/07 02:38:38;;;;;;;15.73;1.50;;;4.00;99.90;;;;;;6210457;23;20432;-81
2022/12/07 02:41:17;;;;;;;12.45;1.65;;;4.30;99.90;;;;;;6211885;23;20134;-79
2022/12/07 02:43:49;;;;;;;11.93;3.15;;;4.40;99.90;;;;;;6211482;23;20027;-83
2022/12/07 02:46:20;;;;;;;11.43;2.38;;;4.80;99.90;;;;;;6189135;23;20115;-81
2022/12/07 02:48:47;;;;;;;7.93;1.65;;;4.80;99.90;;;;;;6214122;23;20024;-82
2022/12/07 02:51:13;;;;;;;15.95;1.50;;;4.70;99.90;;;;;;6213116;23;20035;-80
2022/12/07 02:53:41;;;;;;;7.40;1.20;;;4.80;99.90;;;;;;6212951;23;20013;-81
2022/12/07 02:56:43;;;;;;;9.15;1.77;;;4.80;99.90;;;;;;6188396;23;20070;-79
2022/12/07 02:59:17;;;;;;;12.98;3.30;;;4.70;99.90;;;;;;6079617;23;20033;-81
2022/12/07 03:05:35;;;;;;;11.77;1.20;;;4.70;99.90;;;;;;6094516;23;20137;-82
2022/12/07 03:08:11;;;;;;;7.22;0.93;;;4.90;99.90;;;;;;6071629;23;20105;-80
2022/12/07 03:11:21;;;;;;;5.53;0.85;;;4.80;99.90;;;;;;6074079;23;20018;-79
2022/12/07 03:13:54;;;;;;;10.02;2.67;;;4.80;99.90;;;;;;6039666;23;20423;-82
2022/12/07 03:16:25;;;;;;;10.80;1.75;;;5.00;99.90;;;;;;6092578;23;20030;-81
2022/12/07 03:19:13;;;;;;;7.65;1.73;;;5.30;99.90;;;;;;6068840;23;20033;-81
2022/12/07 03:21:46;;;;;;;7.25;2.25;;;5.40;99.90;;;;;;6092554;23;20105;-83
2022/12/07 03:24:18;;;;;;;10.40;3.17;;;5.40;99.90;;;;;;6091947;23;20046;-83
2022/12/07 03:27:11;;;;;;;8.98;1.60;;;5.30;99.90;;;;;;6066401;23;20010;-79
2022/12/07 03:33:10;;;;;;;10.65;1.25;;;4.90;99.90;;;;;;6036882;23;20029;-79
2022/12/07 03:35:44;;;;;;;10.35;1.17;;;4.70;99.90;;;;;;6073478;23;20018;-84
2022/12/07 03:38:38;;;;;;;9.25;1.48;;;4.70;99.90;;;;;;6095350;23;20014;-82
2022/12/07 03:41:11;;;;;;;6.82;1.35;;;4.50;99.90;;;;;;6072867;23;20017;-84
2022/12/07 03:43:37;;;;;;;10.85;2.35;;;4.70;99.90;;;;;;6097836;23;20188;-81
2022/12/07 03:46:42;;;;;;;12.85;4.35;;;4.70;99.90;;;;;;6098997;23;20093;-83
2022/12/07 03:49:28;;;;;;;15.93;5.05;;;4.70;99.90;;;;;;6075041;23;20339;-83
2022/12/07 03:51:53;;;;;;;9.48;3.83;;;4.60;99.90;;;;;;6098081;23;20017;-79
2022/12/07 03:54:37;;;;;;;8.48;2.13;;;4.50;99.90;;;;;;6120424;23;20191;-82
2022/12/07 03:57:05;;;;;;;15.35;1.67;;;4.60;99.90;;;;;;6096658;23;20010;-81
2022/12/07 03:59:32;;;;;;;8.85;1.15;;;4.60;99.90;;;;;;6119055;23;20022;-81
2022/12/07 04:02:03;;;;;;;13.10;1.70;;;4.50;99.90;;;;;;6072875;23;20426;-80
2022/12/07 04:04:29;;;;;;;10.40;1.55;;;4.40;99.90;;;;;;6122852;23;20010;-80
2022/12/07 04:06:55;;;;;;;16.67;2.03;;;4.40;99.90;;;;;;6098385;23;20010;-84
2022/12/07 04:09:21;;;;;;;14.85;3.35;;;4.40;99.90;;;;;;6166041;23;20078;-81
2022/12/07 04:11:47;;;;;;;10.48;3.63;;;4.40;99.90;;;;;;6220056;23;20087;-80
2022/12/07 04:14:19;;;;;;;16.40;6.93;;;4.30;99.90;;;;;;6198141;23;20078;-85
2022/12/07 04:16:46;;;;;;;13.68;2.28;;;4.40;99.90;;;;;;6193974;23;20039;-83
2022/12/07 04:19:13;;;;;;;16.33;1.63;;;4.20;99.90;;;;;;6192732;23;20373;-81
2022/12/07 04:21:39;;;;;;;16.70;1.60;;;4.10;99.90;;;;;;6167144;23;20016;-86
2022/12/07 04:24:05;;;;;;;13.60;1.15;;;4.10;99.90;;;;;;6192041;23;20012;-84
2022/12/07 04:26:31;;;;;;;13.27;1.40;;;4.30;99.90;;;;;;6218717;23;20035;-79
2022/12/07 04:28:57;;;;;;;16.55;1.58;;;3.90;99.90;;;;;;6218187;23;20431;-83
2022/12/07 04:31:22;;;;;;;14.25;1.80;;;3.70;99.90;;;;;;6219434;23;20008;-81
2022/12/07 04:33:48;;;;;;;13.27;1.88;;;3.80;99.90;;;;;;6213810;23;20020;-81
2022/12/07 04:36:14;;;;;;;10.55;1.25;;;3.50;99.90;;;;;;6213339;23;20017;-82
2022/12/07 04:38:39;;;;;;;13.23;1.50;;;3.60;99.90;;;;;;6211401;23;20016;-82
2022/12/07 04:41:06;;;;;;;12.35;1.13;;;3.50;99.90;;;;;;6212838;23;20012;-80
2022/12/07 04:43:32;;;;;;;10.13;1.90;;;3.70;99.90;;;;;;6213031;23;20090;-81
2022/12/07 04:45:58;;;;;;;15.85;2.40;;;3.70;99.90;;;;;;6212454;23;20383;-80
2022/12/07 04:48:24;;;;;;;7.60;1.60;;;3.90;99.90;;;;;;6187537;23;20087;-83
2022/12/07 04:50:49;;;;;;;15.60;1.70;;;4.10;99.90;;;;;;6187281;23;20020;-81
2022/12/07 04:53:15;;;;;;;9.63;1.25;;;3.80;99.90;;;;;;6211736;23;20017;-85
2022/12/07 04:55:41;;;;;;;15.77;1.80;;;3.80;99.90;;;;;;6160785;23;20013;-84
2022/12/07 04:58:07;;;;;;;13.38;1.27;;;3.80;99.90;;;;;;6161589;23;20390;-81
2022/12/07 05:00:33;;;;;;;14.98;1.45;;;3.80;99.90;;;;;;6211408;23;20473;-83
2022/12/07 05:02:59;;;;;;;18.77;1.70;;;3.60;99.90;;;;;;6186527;23;20016;-82
2022/12/07 05:05:25;;;;;;;14.43;1.60;;;3.60;99.90;;;;;;6187767;23;20328;-81
2022/12/07 05:07:51;;;;;;;11.35;1.20;;;3.50;99.90;;;;;;6211161;23;20020;-81
2022/12/07 05:10:17;;;;;;;9.32;1.45;;;3.30;99.90;;;;;;6185885;23;20080;-85
2022/12/07 05:12:42;;;;;;;14.27;1.50;;;3.10;99.90;;;;;;6187065;23;20112;-84
2022/12/07 05:15:08;;;;;;;9.68;1.38;;;3.10;99.90;;;;;;6187155;23;20016;-79
2022/12/07 05:17:34;;;;;;;12.93;1.60;;;2.90;99.90;;;;;;6212310;23;20103;-84
2022/12/07 05:20:00;;;;;;;15.38;2.80;;;3.00;99.90;;;;;;6213466;23;20029;-81
2022/12/07 05:22:27;;;;;;;13.02;2.88;;;3.20;99.90;;;;;;6214167;23;20336;-80
2022/12/07 05:24:54;;;;;;;15.57;1.98;;;2.80;99.90;;;;;;6213551;23;20036;-81
2022/12/07 05:27:20;;;;;;;15.20;1.50;;;3.10;99.90;;;;;;6213186;23;20019;-82
2022/12/07 05:29:46;;;;;;;14.77;1.73;;;3.10;99.90;;;;;;6188198;23;20067;-82
2022/12/07 05:32:12;;;;;;;16.33;1.55;;;2.80;99.90;;;;;;6211910;23;20012;-83
2022/12/07 05:34:37;;;;;;;16.95;1.52;;;2.80;99.90;;;;;;6186862;23;20385;-83
2022/12/07 05:37:03;;;;;;;13.48;1.63;;;2.70;99.90;;;;;;6211358;23;20012;-82
2022/12/07 05:39:29;;;;;;;11.80;1.40;;;2.70;99.90;;;;;;6210917;23;20106;-83
2022/12/07 05:42:13;;;;;;;11.43;1.10;;;3.00;99.90;;;;;;6211811;23;20016;-82
2022/12/07 05:44:44;;;;;;;11.40;1.48;;;3.00;99.90;;;;;;6187038;23;20020;-82
2022/12/07 05:47:11;;;;;;;11.27;1.50;;;3.00;99.90;;;;;;6211502;23;20013;-81
2022/12/07 05:49:37;;;;;;;15.73;1.42;;;2.90;99.90;;;;;;6186649;23;20443;-81
2022/12/07 05:52:04;;;;;;;17.15;1.60;;;2.70;99.90;;;;;;6212211;23;20393;-84
2022/12/07 05:54:30;;;;;;;8.30;1.20;;;3.00;99.90;;;;;;6186153;23;20017;-80
2022/12/07 05:56:55;;;;;;;15.60;1.65;;;2.70;99.90;;;;;;6161607;23;20095;-84
2022/12/07 05:59:24;;;;;;;15.48;1.70;;;2.80;99.90;;;;;;6211840;23;20440;-80
2022/12/07 06:02:02;;;;;;;15.18;2.00;;;3.10;99.90;;;;;;6213293;23;20424;-81
2022/12/07 06:04:32;;;;;;;12.85;1.55;;;2.80;99.90;;;;;;6186029;23;20019;-83
2022/12/07 06:07:00;;;;;;;9.50;1.45;;;3.00;99.90;;;;;;6184838;23;20104;-82
2022/12/07 06:09:27;;;;;;;13.70;1.80;;;3.00;99.90;;;;;;6207909;23;20016;-82
2022/12/07 06:14:39;;;;;;;11.73;2.25;;;3.00;99.90;;;;;;6211721;23;20027;-83
2022/12/07 06:17:05;;;;;;;12.70;1.77;;;3.40;99.90;;;;;;6210077;23;20087;-82
2022/12/07 06:19:31;;;;;;;12.90;1.45;;;3.70;99.90;;;;;;6185511;23;20016;-84
2022/12/07 06:21:57;;;;;;;10.13;1.20;;;3.60;99.90;;;;;;6211053;23;20336;-85
2022/12/07 06:24:24;;;;;;;6.97;1.10;;;3.70;99.90;;;;;;6185735;23;20351;-84
2022/12/07 06:26:50;;;;;;;8.85;2.22;;;3.70;99.90;;;;;;6210689;23;20035;-81
2022/12/07 06:29:17;;;;;;;14.18;3.00;;;3.60;99.90;;;;;;6211665;23;20290;-84
2022/12/07 06:31:43;;;;;;;15.23;5.00;;;3.50;99.90;;;;;;6186542;23;20088;-82
2022/12/07 06:34:15;;;;;;;15.30;5.60;;;3.40;99.90;;;;;;6212256;23;20051;-86
2022/12/07 06:36:41;;;;;;;13.85;6.18;;;3.20;99.90;;;;;;6187688;23;20013;-82
2022/12/07 06:39:08;;;;;;;12.10;4.22;;;3.50;99.90;;;;;;6212330;23;20095;-81
2022/12/07 06:41:36;;;;;;;8.80;2.30;;;3.20;99.90;;;;;;6188230;23;20086;-82
2022/12/07 06:44:01;;;;;;;9.57;1.83;;;3.50;99.90;;;;;;6188420;23;20023;-84
2022/12/07 06:46:27;;;;;;;7.70;0.98;;;3.30;99.90;;;;;;6188035;23;20012;-83
2022/12/07 06:48:53;;;;;;;12.45;1.42;;;3.20;99.90;;;;;;6212032;23;20083;-83
2022/12/07 06:51:18;;;;;;;7.55;1.08;;;3.10;99.90;;;;;;6186495;23;20012;-80
2022/12/07 06:53:44;;;;;;;8.40;1.70;;;2.90;99.90;;;;;;6186506;23;20082;-82
2022/12/07 06:56:10;;;;;;;13.43;1.23;;;2.80;99.90;;;;;;6212298;23;20023;-80
2022/12/07 06:58:36;;;;;;;10.45;1.30;;;2.70;99.90;;;;;;6188264;23;20031;-82
2022/12/07 07:01:02;;;;;;;10.00;1.27;;;2.70;99.90;;;;;;6189998;23;20020;-81
2022/12/07 07:03:28;;;;;;;7.68;1.15;;;2.90;99.90;;;;;;6186682;23;20143;-83
2022/12/07 07:05:54;;;;;;;9.25;1.00;;;2.90;99.90;;;;;;6210850;23;20438;-81
2022/12/07 07:08:20;;;;;;;11.73;1.40;;;2.90;99.90;;;;;;6185215;23;20020;-84
2022/12/07 07:10:45;;;;;;;10.43;1.65;;;2.80;99.90;;;;;;6185830;23;20324;-81
2022/12/07 07:13:11;;;;;;;8.27;2.08;;;3.00;99.90;;;;;;6188843;23;20017;-83
2022/12/07 07:15:38;;;;;;;7.90;1.63;;;3.20;99.90;;;;;;6215324;23;20308;-78
2022/12/07 07:18:04;;;;;;;7.68;1.33;;;3.20;99.90;;;;;;6187810;23;20412;-81
2022/12/07 07:20:30;;;;;;;7.65;0.85;;;3.20;99.90;;;;;;6188287;23;20091;-81
2022/12/07 07:22:56;;;;;;;8.02;0.88;;;3.20;99.90;;;;;;6187667;23;20039;-79
2022/12/07 07:25:22;;;;;;;7.88;1.30;;;3.40;99.90;;;;;;6213712;23;20012;-84
2022/12/07 07:27:48;;;;;;;4.22;1.10;;;3.40;99.90;;;;;;6209785;23;20013;-82
2022/12/07 07:30:14;;;;;;;12.95;2.10;;;3.40;99.90;;;;;;6209872;23;20019;-80
2022/12/07 07:32:39;;;;;;;14.32;2.85;;;3.40;99.90;;;;;;6186846;23;20067;-83
2022/12/07 07:35:06;;;;;;;21.35;6.22;;;3.40;99.90;;;;;;6218194;23;20066;-81
2022/12/07 07:37:31;;;;;;;14.30;4.22;;;3.10;99.90;;;;;;6214563;23;20668;-81
2022/12/07 07:39:57;;;;;;;11.05;2.95;;;3.20;99.90;;;;;;6243125;23;20038;-83
2022/12/07 07:42:22;;;;;;;9.35;1.88;;;3.40;99.90;;;;;;6240613;23;20043;-82
2022/12/07 07:44:48;;;;;;;11.25;1.63;;;3.20;99.90;;;;;;6244316;23;20024;-80
2022/12/07 07:47:14;;;;;;;9.13;1.52;;;3.20;99.90;;;;;;6215820;23;20458;-78
2022/12/07 07:49:40;;;;;;;15.30;1.80;;;2.90;99.90;;;;;;6214983;23;20403;-81
2022/12/07 07:52:06;;;;;;;11.40;1.55;;;2.80;99.90;;;;;;6190227;23;20047;-82
2022/12/07 07:54:31;;;;;;;17.13;1.60;;;3.00;99.90;;;;;;6187547;23;20012;-79
2022/12/07 07:56:57;;;;;;;17.58;2.20;;;2.90;99.90;;;;;;6213106;23;20051;-79
2022/12/07 07:59:25;;;;;;;11.65;1.65;;;2.90;99.90;;;;;;6214397;23;20034;-80
2022/12/07 08:01:50;;;;;;;19.27;1.92;;;2.80;99.90;;;;;;6187550;23;20020;-81
2022/12/07 08:04:16;;;;;;;22.02;1.58;;;2.90;99.90;;;;;;6241865;23;20107;-82
2022/12/07 08:06:42;;;;;;;21.42;1.65;;;2.80;99.90;;;;;;6215397;23;20074;-82
2022/12/07 08:09:08;;;;;;;15.23;1.48;;;2.50;99.90;;;;;;6215958;23;20012;-82
2022/12/07 08:11:34;;;;;;;13.10;1.75;;;2.80;99.90;;;;;;6192117;23;20008;-79
2022/12/07 08:14:01;;;;;;;9.95;2.10;;;2.40;99.90;;;;;;6191490;23;20020;-79
2022/12/07 08:16:27;;;;;;;10.30;1.42;;;2.40;99.90;;;;;;6193027;23;20096;-81
2022/12/07 08:18:56;;;;;;;12.13;1.25;;;2.80;99.90;;;;;;6192538;23;20482;-80
2022/12/07 08:21:21;;;;;;;11.68;1.52;;;2.60;99.90;;;;;;6217392;23;20019;-81
2022/12/07 08:23:47;;;;;;;11.45;1.50;;;2.80;99.90;;;;;;6216622;23;20016;-82
2022/12/07 08:26:15;;;;;;;15.25;1.40;;;2.70;99.90;;;;;;6193431;23;20096;-83
2022/12/07 08:28:41;;;;;;;13.10;1.70;;;2.60;99.90;;;;;;6218247;23;20454;-84
2022/12/07 08:31:25;;;;;;;10.85;1.40;;;2.80;99.90;;;;;;6196817;23;20076;-81
2022/12/07 08:33:51;;;;;;;15.85;1.60;;;2.60;99.90;;;;;;6192399;23;20107;-80
2022/12/07 08:36:18;;;;;;;10.55;1.42;;;3.00;99.90;;;;;;6214849;23;20447;-80
2022/12/07 08:38:43;;;;;;;15.80;1.63;;;3.00;99.90;;;;;;6186608;23;20027;-80
2022/12/07 08:41:09;;;;;;;11.02;1.55;;;3.30;99.90;;;;;;6208716;23;20020;-81
2022/12/07 08:43:36;;;;;;;10.05;2.30;;;3.30;99.90;;;;;;6186023;23;20030;-81
2022/12/07 08:46:40;;;;;;;13.18;3.83;;;3.30;99.90;;;;;;6209568;23;20381;-79
2022/12/07 08:49:15;;;;;;;14.38;4.05;;;3.40;99.90;;;;;;6202105;23;20112;-78
2022/12/07 08:51:41;;;;;;;23.02;5.22;;;3.80;99.90;;;;;;6209898;23;20527;-78
2022/12/07 08:54:11;;;;;;;11.88;4.20;;;3.70;99.90;;;;;;6210654;23;20020;-81
2022/12/07 08:56:37;;;;;;;15.95;3.05;;;3.90;99.90;;;;;;6210782;23;20044;-79
2022/12/07 08:59:04;;;;;;;17.40;2.10;;;3.90;99.90;;;;;;6208334;23;20099;-82
2022/12/07 09:01:30;;;;;;;17.38;1.92;;;4.00;99.90;;;;;;6208705;23;20025;-79
2022/12/07 09:03:55;;;;;;;15.43;2.05;;;4.00;99.90;;;;;;6210720;23;20053;-82
2022/12/07 09:06:22;;;;;;;10.90;2.03;;;4.00;99.90;;;;;;6215001;23;20055;-82
2022/12/07 09:08:51;;;;;;;14.23;1.77;;;4.00;99.90;;;;;;6212672;23;20321;-81
2022/12/07 09:11:16;;;;;;;11.30;1.80;;;4.20;99.90;;;;;;6185864;23;20732;-79
2022/12/07 09:13:42;;;;;;;16.20;1.77;;;4.10;99.90;;;;;;6186055;23;20055;-78
2022/12/07 09:16:08;;;;;;;13.70;1.85;;;4.20;99.90;;;;;;6209548;23;20021;-83
2022/12/07 09:18:34;;;;;;;8.98;1.40;;;4.30;99.90;;;;;;6187763;23;20025;-80
2022/12/07 09:20:59;;;;;;;8.45;1.65;;;4.50;99.90;;;;;;6212845;23;20012;-80
2022/12/07 09:23:25;;;;;;;8.45;1.02;;;4.50;99.90;;;;;;6184152;23;20016;-81
2022/12/07 09:25:51;;;;;;;3.08;0.75;;;4.70;99.90;;;;;;6187350;23;20059;-78
2022/12/07 09:28:20;;;;;;;5.07;0.65;;;4.80;99.90;;;;;;6185599;23;20485;-81
2022/12/07 09:30:47;;;;;;;9.10;0.85;;;5.00;99.90;;;;;;6213232;23;20048;-79
2022/12/07 09:33:13;;;;;;;6.18;0.85;;;5.10;99.90;;;;;;6212498;23;20076;-82
2022/12/07 09:35:45;;;;;;;5.38;1.52;;;5.10;99.90;;;;;;6212205;23;20466;-82
2022/12/07 09:38:10;;;;;;;5.97;1.10;;;4.90;99.90;;;;;;6210422;23;20050;-79
2022/12/07 09:40:36;;;;;;;5.85;1.00;;;5.00;99.90;;;;;;6214236;23;20087;-80
2022/12/07 09:43:02;;;;;;;7.63;1.17;;;4.90;99.90;;;;;;6212768;23;20091;-81
2022/12/07 09:45:34;;;;;;;7.28;1.38;;;4.80;99.90;;;;;;6210079;23;20012;-83
2022/12/07 09:48:00;;;;;;;10.85;1.30;;;4.80;99.90;;;;;;6210966;23;20554;-80
2022/12/07 09:50:28;;;;;;;11.55;1.83;;;4.80;99.90;;;;;;6187395;23;20017;-81
2022/12/07 09:53:05;;;;;;;13.05;1.50;;;4.60;99.90;;;;;;6184859;23;20051;-81
2022/12/07 09:55:31;;;;;;;10.25;1.42;;;4.70;99.90;;;;;;6213483;23;20028;-83
2022/12/07 09:57:58;;;;;;;14.65;1.85;;;4.80;99.90;;;;;;6211534;23;20096;-83
2022/12/07 10:00:25;;;;;;;14.50;1.73;;;4.70;99.90;;;;;;6215732;23;20043;-82
2022/12/07 10:02:57;;;;;;;17.23;2.05;;;4.90;99.90;;;;;;6191480;23;20052;-80
2022/12/07 10:05:37;;;;;;;8.70;1.48;;;4.70;99.90;;;;;;6199711;23;20015;-79
2022/12/07 10:08:03;;;;;;;8.80;1.50;;;4.70;99.90;;;;;;6219940;23;20368;-81
2022/12/07 10:10:31;;;;;;;13.10;1.60;;;4.60;99.90;;;;;;6210833;23;20016;-80
2022/12/07 10:13:03;;;;;;;15.77;2.30;;;4.80;99.90;;;;;;6207722;23;20016;-84
2022/12/07 10:15:48;;;;;;;10.32;1.92;;;4.80;99.90;;;;;;6184409;23;20035;-84
2022/12/07 10:18:36;;;;;;;9.73;1.42;;;4.60;99.90;;;;;;6209320;23;20013;-80
2022/12/07 10:21:16;;;;;;;7.07;1.40;;;4.70;99.90;;;;;;6213060;23;20074;-80
2022/12/07 10:24:00;;;;;;;8.90;1.67;;;4.80;99.90;;;;;;6210527;23;20082;-81
2022/12/07 10:26:30;;;;;;;12.15;1.80;;;4.90;99.90;;;;;;6211173;23;20063;-80
2022/12/07 10:29:00;;;;;;;12.00;1.55;;;4.90;99.90;;;;;;6191931;23;20179;-80
2022/12/07 10:31:26;;;;;;;8.30;1.65;;;4.80;99.90;;;;;;6220029;23;20013;-81
2022/12/07 10:34:01;;;;;;;9.30;1.88;;;5.10;99.90;;;;;;6180471;23;20023;-83
2022/12/07 10:36:38;;;;;;;13.30;1.55;;;5.20;99.90;;;;;;6216601;23;20025;-81
2022/12/07 10:39:17;;;;;;;10.35;1.50;;;5.30;99.90;;;;;;6164145;23;20045;-82
2022/12/07 10:41:55;;;;;;;20.08;2.10;;;5.50;99.90;;;;;;6164472;23;20100;-81
2022/12/07 10:44:27;;;;;;;13.63;1.80;;;5.40;99.90;;;;;;6190522;23;20123;-82
2022/12/07 10:46:56;;;;;;;8.43;1.20;;;5.70;99.90;;;;;;6162200;23;20051;-83
2022/12/07 10:49:44;;;;;;;9.20;1.30;;;5.60;99.90;;;;;;6188746;23;20013;-82
2022/12/07 10:52:31;;;;;;;12.88;1.50;;;5.80;99.90;;;;;;6186272;23;20013;-80
2022/12/07 10:55:14;;;;;;;11.48;1.75;;;5.60;99.90;;;;;;6165097;23;20074;-82
2022/12/07 10:58:12;;;;;;;11.98;1.70;;;5.60;99.90;;;;;;6190567;23;20031;-79
2022/12/07 11:00:49;;;;;;;10.52;1.73;;;5.70;99.90;;;;;;6165994;23;20008;-83
2022/12/07 11:03:37;;;;;;;12.68;1.80;;;5.50;99.90;;;;;;6163756;23;20322;-83
2022/12/07 11:06:18;;;;;;;7.28;1.30;;;5.50;99.90;;;;;;6166577;23;20035;-82
2022/12/07 11:08:45;;;;;;;13.65;1.80;;;5.20;99.90;;;;;;6193725;23;20016;-83
2022/12/07 11:11:38;;;;;;;6.72;1.30;;;4.90;99.90;;;;;;6164563;23;20095;-82
2022/12/07 11:14:19;;;;;;;8.25;1.13;;;4.70;99.90;;;;;;6165630;23;20017;-83
2022/12/07 11:17:05;;;;;;;7.88;1.45;;;4.60;99.90;;;;;;6164087;23;20090;-83
2022/12/07 11:20:00;;;;;;;8.27;2.50;;;4.50;99.90;;;;;;6190757;23;20019;-81
2022/12/07 11:22:28;;;;;;;11.63;2.50;;;4.70;99.90;;;;;;6188999;23;20028;-80
2022/12/07 11:25:00;;;;;;;12.23;3.83;;;4.70;99.90;;;;;;6188849;23;20302;-81
2022/12/07 11:27:44;;;;;;;14.20;5.25;;;4.80;99.90;;;;;;6163383;23;20333;-82
2022/12/07 11:30:20;;;;;;;13.20;5.95;;;5.00;99.90;;;;;;6188249;23;20020;-84
2022/12/07 11:33:27;;;;;;;16.20;6.45;;;5.00;99.90;;;;;;6165113;23;20336;-81
2022/12/07 11:36:19;;;;;;;9.73;1.83;;;5.10;99.90;;;;;;6204489;23;20464;-80
2022/12/07 11:38:58;;;;;;;6.35;0.88;;;5.40;99.90;;;;;;6181745;23;20012;-79
2022/12/07 11:41:29;;;;;;;9.00;2.00;;;5.30;99.90;;;;;;6186809;23;20013;-79
2022/12/07 11:44:19;;;;;;;7.07;1.20;;;5.30;99.90;;;;;;6211410;23;20433;-82
2022/12/07 11:47:01;;;;;;;5.55;0.65;;;5.10;99.90;;;;;;6184489;23;20008;-82
2022/12/07 11:50:07;;;;;;;6.38;1.20;;;5.10;99.90;;;;;;6209158;23;20019;-80
2022/12/07 11:52:51;;;;;;;5.80;1.15;;;5.20;99.90;;;;;;6212105;23;20220;-83
2022/12/07 11:55:50;;;;;;;8.53;1.13;;;5.30;99.90;;;;;;6211769;23;20095;-81
2022/12/07 11:58:52;;;;;;;4.75;1.00;;;5.30;99.90;;;;;;6210915;23;20125;-82
2022/12/07 12:05:21;;;;;;;15.93;1.45;;;5.40;99.90;;;;;;6215642;23;20028;-79
2022/12/07 12:07:59;;;;;;;11.75;1.42;;;5.50;99.90;;;;;;6191077;23;20023;-79
2022/12/07 12:10:37;;;;;;;6.93;1.25;;;5.50;99.90;;;;;;6212386;23;20020;-79
2022/12/07 12:13:29;;;;;;;13.00;1.40;;;5.50;99.90;;;;;;6211251;23;20035;-84
2022/12/07 12:16:16;;;;;;;9.77;1.50;;;5.30;99.90;;;;;;6162091;23;20824;-80
2022/12/07 12:19:15;;;;;;;7.32;1.20;;;5.30;99.90;;;;;;6209037;23;20094;-80
2022/12/07 12:21:42;;;;;;;11.63;1.42;;;5.30;99.90;;;;;;6185632;23;20024;-82
2022/12/07 12:24:24;;;;;;;12.13;1.67;;;5.40;99.90;;;;;;6184672;23;20016;-84
2022/12/07 12:26:56;;;;;;;6.53;1.25;;;5.50;99.90;;;;;;6213085;23;20107;-81
2022/12/07 12:29:30;;;;;;;15.35;1.58;;;5.50;99.90;;;;;;6212310;23;20009;-80
2022/12/07 12:32:14;;;;;;;12.18;1.23;;;5.50;99.90;;;;;;6213987;23;20009;-82
2022/12/07 12:35:01;;;;;;;9.60;1.35;;;5.50;99.90;;;;;;6212058;23;20016;-82
2022/12/07 12:37:41;;;;;;;13.05;1.33;;;5.60;99.90;;;;;;6186703;23;20040;-84
2022/12/07 12:40:16;;;;;;;7.22;1.15;;;5.60;99.90;;;;;;6188519;23;20523;-82
2022/12/07 12:42:55;;;;;;;8.57;1.10;;;5.70;99.90;;;;;;6212186;23;20013;-80
2022/12/07 12:45:27;;;;;;;8.50;1.45;;;5.60;99.90;;;;;;6187662;23;20020;-83
2022/12/07 12:47:58;;;;;;;9.60;1.27;;;5.60;99.90;;;;;;6213894;23;20020;-84
2022/12/07 12:50:35;;;;;;;10.77;1.55;;;5.60;99.90;;;;;;6214617;23;20092;-81
2022/12/07 12:53:25;;;;;;;8.48;0.98;;;5.50;99.90;;;;;;6232660;23;20020;-84
2022/12/07 12:56:15;;;;;;;5.55;0.88;;;5.60;99.90;;;;;;6195245;23;20043;-82
2022/12/07 12:58:43;;;;;;;10.27;1.27;;;5.40;99.90;;;;;;6189696;23;20062;-80
2022/12/07 13:01:48;;;;;;;12.43;1.52;;;5.30;99.90;;;;;;6190108;23;20028;-81
2022/12/07 13:04:48;;;;;;;6.47;0.88;;;5.30;99.90;;;;;;6188593;23;20366;-80
2022/12/07 13:07:49;;;;;;;7.72;0.95;;;5.10;99.90;;;;;;6219160;23;20036;-82
2022/12/07 13:10:30;;;;;;;5.53;0.90;;;4.90;99.90;;;;;;6218084;23;20035;-84
2022/12/07 13:13:00;;;;;;;4.03;0.95;;;4.70;99.90;;;;;;6214480;23;20079;-81
2022/12/07 13:15:40;;;;;;;9.15;1.00;;;4.70;99.90;;;;;;6215549;23;20078;-82
2022/12/07 13:18:27;;;;;;;5.65;0.98;;;4.80;99.90;;;;;;6164054;23;20432;-79
2022/12/07 13:21:08;;;;;;;6.80;0.73;;;4.80;99.90;;;;;;6187689;23;20139;-83
2022/12/07 13:23:37;;;;;;;6.22;1.00;;;4.70;99.90;;;;;;6210905;23;20021;-79
2022/12/07 13:26:29;;;;;;;8.02;1.10;;;4.80;99.90;;;;;;6195418;23;20008;-83
2022/12/07 13:29:16;;;;;;;10.35;1.38;;;4.70;99.90;;;;;;6191619;23;20024;-83